Oosterschelde — PGNP — position and weather

sailwx.info

Track history (hours):
 
Tides and Currents Weather Stations Pressure Air Temp Water Temp Dewpoint Dewpoint Depression Visibility Wind Speed Wind Dir Waves Ship Positions

Oosterschelde (Netherlands)

Ship's website: http://www.oosterschelde.nl/indexuk.htm

Last reported at 2017-Oct-19 15:45 UTC. Time now 2017-Oct-22 19:17 UTC.
Position N 51°49' E 004°45'.

Length 49 m; draft 2.9 m.

Type: Sailing vessel. MMSI: 246010985.

Date/timePositionNaut miles runAvg speedWind from/ knotsBaromVisibWave heightAir tempDewpointWater temp
2017-Oct-19 15:45N 51°49' E 004°45'0 0.1
2017-Oct-19 15:27N 51°49' E 004°45'0 0.1
2017-Oct-19 15:00N 51°49' E 004°45'3 5.7
2017-Oct-19 14:31N 51°49' E 004°41'4 7.6
2017-Oct-19 13:59N 51°53' E 004°38'4 8.2
2017-Oct-19 13:30N 51°54' E 004°32'2 3.6
2017-Oct-19 13:00N 51°55' E 004°29'0 0.0
2017-Oct-19 12:30N 51°55' E 004°29'  
2017-Oct-13 17:07N 51°55' E 004°29'0 0.1
2017-Oct-13 17:00N 51°55' E 004°29'0 0.3
2017-Oct-13 16:30N 51°55' E 004°29'0 0.0
2017-Oct-13 16:00N 51°55' E 004°29'0 0.0
2017-Oct-13 15:30N 51°55' E 004°29'0 0.0
2017-Oct-13 15:00N 51°55' E 004°29'1 2.1
2017-Oct-13 14:30N 51°55' E 004°31'4 8.7
2017-Oct-13 14:00N 51°53' E 004°37'4 8.4
2017-Oct-13 13:31N 51°50' E 004°40'3 6.4
2017-Oct-13 13:00N 51°49' E 004°45'0 0.3
2017-Oct-13 12:30N 51°49' E 004°45'0 0.0
2017-Oct-13 12:00N 51°49' E 004°45'0 0.0
2017-Oct-13 11:30N 51°49' E 004°45'0 0.0
2017-Oct-13 11:00N 51°49' E 004°45'0 0.0
2017-Oct-13 10:30N 51°49' E 004°45'0 0.0
2017-Oct-13 10:00N 51°49' E 004°45'0 0.0
2017-Oct-13 09:30N 51°49' E 004°45'0 0.0
2017-Oct-13 09:00N 51°49' E 004°45'0 0.0
2017-Oct-13 08:30N 51°49' E 004°45'  
2017-Oct-10 09:26N 51°49' E 004°45'0 0.1
2017-Oct-10 09:00N 51°49' E 004°45'0 0.0
2017-Oct-10 08:30N 51°49' E 004°45'0 0.0
2017-Oct-10 08:00N 51°49' E 004°45'0 0.0
2017-Oct-10 07:30N 51°49' E 004°45'0 0.0
2017-Oct-10 07:00N 51°49' E 004°45'0 0.0
2017-Oct-10 06:30N 51°49' E 004°45'0 0.0
2017-Oct-10 06:00N 51°49' E 004°45'0 0.0
2017-Oct-10 05:30N 51°49' E 004°45'0 0.0
2017-Oct-10 05:00N 51°49' E 004°45'0 0.0
2017-Oct-10 04:30N 51°49' E 004°45'0 0.0
2017-Oct-10 04:00N 51°49' E 004°45'0 0.0
2017-Oct-10 03:30N 51°49' E 004°45'0 0.0
2017-Oct-10 03:00N 51°49' E 004°45'0 0.0
2017-Oct-10 02:30N 51°49' E 004°45'0 0.0
2017-Oct-10 02:00N 51°49' E 004°45'0 0.0
2017-Oct-10 01:30N 51°49' E 004°45'0 0.0
2017-Oct-10 01:00N 51°49' E 004°45'0 0.0
2017-Oct-10 00:30N 51°49' E 004°45'0 0.0
2017-Oct-10 00:00N 51°49' E 004°45'0 0.0
2017-Oct-09 23:30N 51°49' E 004°45'0 0.0
2017-Oct-09 23:00N 51°49' E 004°45'0 0.0
2017-Oct-09 22:30N 51°49' E 004°45'0 0.0
2017-Oct-09 22:00N 51°49' E 004°45'0 0.0
2017-Oct-09 21:30N 51°49' E 004°45'0 0.0
2017-Oct-09 21:00N 51°49' E 004°45'0 0.0
2017-Oct-09 20:30N 51°49' E 004°45'0 0.0
2017-Oct-09 20:00N 51°49' E 004°45'0 0.0
2017-Oct-09 19:30N 51°49' E 004°45'0 0.0
2017-Oct-09 19:00N 51°49' E 004°45'0 0.0
2017-Oct-09 18:30N 51°49' E 004°45'0 0.0
2017-Oct-09 18:00N 51°49' E 004°45'0 0.0
2017-Oct-09 17:30N 51°49' E 004°45'0 0.0
2017-Oct-09 17:00N 51°49' E 004°45'0 0.0
2017-Oct-09 16:30N 51°49' E 004°45'0 0.0
2017-Oct-09 16:00N 51°49' E 004°45'  
Track history (hours):
 
Tides and Currents Weather Stations Pressure Air Temp Water Temp Dewpoint Dewpoint Depression Visibility Wind Speed Wind Dir Waves Ship Positions

Oosterschelde (Netherlands)

Ship's website: http://www.oosterschelde.nl/indexuk.htm

Last reported at 2017-Oct-19 15:45 UTC. Time now 2017-Oct-22 19:17 UTC.
Position N 51°49' E 004°45'.

Length 49 m; draft 2.9 m.

Type: Sailing vessel. MMSI: 246010985.

Date/timePositionNaut miles runAvg speedWind from/ knotsBaromVisibWave heightAir tempDewpointWater temp
2017-Oct-19 15:45N 51°49' E 004°45'0 0.1
2017-Oct-19 15:27N 51°49' E 004°45'0 0.1
2017-Oct-19 15:00N 51°49' E 004°45'3 5.7
2017-Oct-19 14:31N 51°49' E 004°41'4 7.6
2017-Oct-19 13:59N 51°53' E 004°38'4 8.2
2017-Oct-19 13:30N 51°54' E 004°32'2 3.6
2017-Oct-19 13:00N 51°55' E 004°29'0 0.0
2017-Oct-19 12:30N 51°55' E 004°29'  
2017-Oct-13 17:07N 51°55' E 004°29'0 0.1
2017-Oct-13 17:00N 51°55' E 004°29'0 0.3
2017-Oct-13 16:30N 51°55' E 004°29'0 0.0
2017-Oct-13 16:00N 51°55' E 004°29'0 0.0
2017-Oct-13 15:30N 51°55' E 004°29'0 0.0
2017-Oct-13 15:00N 51°55' E 004°29'1 2.1
2017-Oct-13 14:30N 51°55' E 004°31'4 8.7
2017-Oct-13 14:00N 51°53' E 004°37'4 8.4
2017-Oct-13 13:31N 51°50' E 004°40'3 6.4
2017-Oct-13 13:00N 51°49' E 004°45'0 0.3
2017-Oct-13 12:30N 51°49' E 004°45'0 0.0
2017-Oct-13 12:00N 51°49' E 004°45'0 0.0
2017-Oct-13 11:30N 51°49' E 004°45'0 0.0
2017-Oct-13 11:00N 51°49' E 004°45'0 0.0
2017-Oct-13 10:30N 51°49' E 004°45'0 0.0
2017-Oct-13 10:00N 51°49' E 004°45'0 0.0
2017-Oct-13 09:30N 51°49' E 004°45'0 0.0
2017-Oct-13 09:00N 51°49' E 004°45'0 0.0
2017-Oct-13 08:30N 51°49' E 004°45'  
2017-Oct-10 09:26N 51°49' E 004°45'0 0.1
2017-Oct-10 09:00N 51°49' E 004°45'0 0.0
2017-Oct-10 08:30N 51°49' E 004°45'0 0.0
2017-Oct-10 08:00N 51°49' E 004°45'0 0.0
2017-Oct-10 07:30N 51°49' E 004°45'0 0.0
2017-Oct-10 07:00N 51°49' E 004°45'0 0.0
2017-Oct-10 06:30N 51°49' E 004°45'0 0.0
2017-Oct-10 06:00N 51°49' E 004°45'0 0.0
2017-Oct-10 05:30N 51°49' E 004°45'0 0.0
2017-Oct-10 05:00N 51°49' E 004°45'0 0.0
2017-Oct-10 04:30N 51°49' E 004°45'0 0.0
2017-Oct-10 04:00N 51°49' E 004°45'0 0.0
2017-Oct-10 03:30N 51°49' E 004°45'0 0.0
2017-Oct-10 03:00N 51°49' E 004°45'0 0.0
2017-Oct-10 02:30N 51°49' E 004°45'0 0.0
2017-Oct-10 02:00N 51°49' E 004°45'0 0.0
2017-Oct-10 01:30N 51°49' E 004°45'0 0.0
2017-Oct-10 01:00N 51°49' E 004°45'0 0.0
2017-Oct-10 00:30N 51°49' E 004°45'0 0.0
2017-Oct-10 00:00N 51°49' E 004°45'0 0.0
2017-Oct-09 23:30N 51°49' E 004°45'0 0.0
2017-Oct-09 23:00N 51°49' E 004°45'0 0.0
2017-Oct-09 22:30N 51°49' E 004°45'0 0.0
2017-Oct-09 22:00N 51°49' E 004°45'0 0.0
2017-Oct-09 21:30N 51°49' E 004°45'0 0.0
2017-Oct-09 21:00N 51°49' E 004°45'0 0.0
2017-Oct-09 20:30N 51°49' E 004°45'0 0.0
2017-Oct-09 20:00N 51°49' E 004°45'0 0.0
2017-Oct-09 19:30N 51°49' E 004°45'0 0.0
2017-Oct-09 19:00N 51°49' E 004°45'0 0.0
2017-Oct-09 18:30N 51°49' E 004°45'0 0.0
2017-Oct-09 18:00N 51°49' E 004°45'0 0.0
2017-Oct-09 17:30N 51°49' E 004°45'0 0.0
2017-Oct-09 17:00N 51°49' E 004°45'0 0.0
2017-Oct-09 16:30N 51°49' E 004°45'0 0.0
2017-Oct-09 16:00N 51°49' E 004°45'  

Dump ship's entire track history